Altus, AR

7:24 AM CDT on October 23, 2014 (GMT -0500)
RVO CLARKSVILLE 64 W. | Change Station
CLOSE
Current Station
Personal Weather Station
Location: Clarksville, AR
Elevation: 394 ft
Nearby Weather Stations

Elev 394 ft 35.46 °N, 93.53 °W | Updated 8 seconds ago

Partly Cloudy
Partly Cloudy
50.0 °F
Feels Like 50.0 °F
N
0.0
Wind Variable Wind from North
Gusts 0.0 mph

Today
High -- | Low -- °F
--% Chance of Precip.
Yesterday
High -- | Low -- °F
Precip. -- in
7:28 AM 6:30 PM
Waning Crescent, 0% visible
Pressure 30.17 in
Visibility 10.0 miles
Clouds Clear
Dew Point 47 °F
Humidity 90%
Rainfall 0.00 in
Snow Depth Not available.
UV 0.0 out of 12
Pollen 3.70 out of 12
Air Quality Not available.
Flu Activity Sporadic
METAR KFSM 231153Z 07007KT 10SM CLR 12/09 A3017 RMK AO2 SLP214 T01220089 10139 20122 51007

More Conditions Fewer Conditions

Pressure 30.17 in
Visibility 10.0 miles
Clouds Clear
Dew Point 47 °F
Humidity 90%
Rainfall 0.00 in
Snow Depth Not available.
UV 0.0 out of 12
Pollen 3.70 out of 12
Air Quality Not available.
Flu Activity Sporadic
METAR KFSM 231153Z 07007KT 10SM CLR 12/09 A3017 RMK AO2 SLP214 T01220089 10139 20122 51007

More Conditions Fewer Conditions

Nowcast | as of 6:45 am CDT on October 23, 2014

At 6:45 am...National Weather Service Doppler radar indicated scattered areas of light rain across parts of eastern Oklahoma. The rain was moving east at 25 miles an hour. Through 9 am...scattered areas of light rain will continue to move across eastern Oklahoma and may begin to affect far western Arkansas as well. The rain will begin to taper off across parts of Osage and Pawnee counties. Rainfall amounts will generally be less than a tenth of an inch.

×

10-Day Weather Forecast

Almanac

Astronomy

Oct. 23, 2014 Rise Set
Actual Time 7:28 AM CDT 6:30 PM CDT
Civil Twilight 7:02 AM CDT 6:55 PM CDT
Nautical Twilight 6:32 AM CDT 7:25 PM CDT
Astronomical Twilight 6:03 AM CDT 7:55 PM CDT
Moon 7:09 AM CDT 6:32 PM CDT
Length of Visible Light 11h 53m
Length of Day
11h 01m
Tomorrow will be 2m 4s shorter.
Waning Crescent, 0% of the Moon is Illuminated
Today
Waning Crescent
Oct 23
New
Oct 30
First Quarter
Nov 6
Full
Nov 14
Last Quarter

Today's Extremes

State Highs State Lows

Community

WunderPhotos

Upload Photos

1,764,211 photos uploaded!

WunderBlogs® & News

Nearby

Snow Depth

Station Depth Elevation
No new snow has been reported.

Earthquake Activity

City Distance Mag. Time & Date
No recent earthquake activity has been reported nearby.
Minimum magnitude displayed is 2.5.

Coastal Water Temperatures

Place Temperature
No Stations Reporting

Nearby Weather Stations